West Point, KY

12:00 AM EST am 02. März 2015 (GMT -0500)
Godman Army Air Field | Change Station
CLOSE
Current Station
Flughafen
Location: Fort Knox,
Höhe: 755 ft
Wetterstationen in der Umgebung
aktive Warnung: Special Statement aktiver Hinweis: Public Information Statement

Höhe 755 ft 37.91 °N, 85.97 °W | Updated 2 minutes ago

Bedeckt
Bedeckt
32 °F
gefühlte 25 °F
N
9
Wind Wechselnd Wind aus West-Nordwest

Heute
Max. -- | schwach -- °F
--% Regenrisiko
Gestern
Max. -- | schwach -- °F
Precip. -- inch
7:14 AM 6:38 PM
Zweites Viertel, 89% visible
Druck 30.38 inch
Sichtweite 9.0 Meilen
Wolken Bedeckt 700 ft
Windchill 25 °F
Taupunkt 30 °F
Feuchtigkeit 90%
Regen 0.01 inch
Schneehöhe Nicht verfügbar..
UV 0 von 12
Pollen .70 von 12
Luftqualität Nicht verfügbar..
Flu Activity Nicht verfügbar..
METAR KFTK 020458Z AUTO 30008KT 9SM R18/5500FT OVC007 00/M01 A3035 RMK AO2 SLP287 T00031011 400601015

More Conditions Fewer Conditions

Druck 30.38 inch
Sichtweite 9.0 Meilen
Wolken Bedeckt 700 ft
Windchill 25 °F
Taupunkt 30 °F
Feuchtigkeit 90%
Regen 0.01 inch
Schneehöhe Nicht verfügbar..
UV 0 von 12
Pollen .70 von 12
Luftqualität Nicht verfügbar..
Flu Activity Nicht verfügbar..
METAR KFTK 020458Z AUTO 30008KT 9SM R18/5500FT OVC007 00/M01 A3035 RMK AO2 SLP287 T00031011 400601015

More Conditions Fewer Conditions

10-Day Weather Forecast

Almanac

Astronomie

Mar. 02, 2015 Aufgang Untergang
Genaue Zeit
Bürgerliche Dämmerung
Nautische Dämmerung
Astronomische Dämmerung
Mond
Länge des sichtbaren Lichts
Tageslänge
Tomorrow will be .
, % of the Moon is Illuminated

Heutige Rekorde

State Highs State Lows

Community

WunderPhotos

Upload Photos

1,801,728 Fotos hochgeladen!

WunderBlogs® & News

Nearby

Luftqualität

  Luftqualität LQ Index Schadstoff
Not available.

Schneehöhe

Station Depth Höhe

Erdbebenaktivität

Stadt Distance Mag. Time & Date
Minimum magnitude displayed is 2.5.

küstennahe Wassertemperaturen

Ort Temperatur

Wetterstationen in der Umgebung

Special Statement
Statement as of 09:50 PM CST am 01. März 2015

... Areas of dense fog this evening and freezing drizzle possible
overnight...

Areas of dense fog continue this evening over much of south-
central and east-central Kentucky and will reduce visibility to
near zero in some spots. The fog is expected to improve overnight
as drier air moves into the region from the north.

In addition to the fog... freezing drizzle will be possible
overnight across south-central Kentucky as temperatures are
expected to fall to around 30 degrees. This could make for slick
and icy roads for the Monday morning commute. If traveling
overnight or Monday morning... give yourself extra time to reach
your destination as there may be slick spots... especially on
secondary... sheltered and untreated surfaces.


Mj